createdAt,value
2018-10-19T00:00:10.666Z,99.99
2018-10-19T00:01:10.656Z,99.99
2018-10-19T00:02:10.618Z,99.99
2018-10-19T00:03:10.637Z,99.99
2018-10-19T00:04:10.573Z,99.99
2018-10-19T00:05:10.662Z,99.99
2018-10-19T00:06:10.534Z,99.99
2018-10-19T00:07:10.514Z,99.99
2018-10-19T00:08:10.488Z,99.99
2018-10-19T00:09:10.510Z,99.99
2018-10-19T00:10:10.440Z,99.99
2018-10-19T00:11:10.498Z,99.99
2018-10-19T00:12:10.406Z,99.99
2018-10-19T00:13:10.377Z,99.99
2018-10-19T00:14:10.360Z,99.99
2018-10-19T00:15:10.469Z,99.99
2018-10-19T00:16:10.309Z,99.99
2018-10-19T00:17:10.349Z,99.99
2018-10-19T00:18:10.268Z,99.99
2018-10-19T00:19:10.246Z,99.99
2018-10-19T00:20:10.223Z,99.99
2018-10-19T00:21:10.292Z,99.99
2018-10-19T00:22:10.181Z,99.99
2018-10-19T00:23:10.163Z,99.99
2018-10-19T00:24:10.140Z,99.99
2018-10-19T00:25:10.118Z,99.99
2018-10-19T00:26:10.092Z,99.99
2018-10-19T00:27:10.185Z,99.99
2018-10-19T00:28:10.057Z,99.99
2018-10-19T00:29:10.085Z,99.99
2018-10-19T00:30:10.009Z,99.99
2018-10-19T00:31:09.987Z,99.99
2018-10-19T00:32:09.961Z,99.99
2018-10-19T00:33:10.010Z,99.99
2018-10-19T00:34:09.919Z,99.99
2018-10-19T00:35:10.021Z,99.99
2018-10-19T00:36:09.878Z,99.99
2018-10-19T00:37:09.850Z,99.99
2018-10-19T00:38:09.837Z,99.99
2018-10-19T00:39:10.051Z,99.99
2018-10-19T00:40:09.866Z,99.99
2018-10-19T00:41:09.919Z,99.99
2018-10-19T00:42:09.740Z,99.99
2018-10-19T00:43:09.715Z,99.99
2018-10-19T00:44:09.741Z,99.99
2018-10-19T00:45:09.748Z,99.99
2018-10-19T00:46:09.658Z,99.99
2018-10-19T00:47:09.675Z,99.99
2018-10-19T00:48:09.614Z,99.99
2018-10-19T00:49:09.585Z,99.99
2018-10-19T00:50:09.566Z,99.99
2018-10-19T00:51:09.603Z,99.99
2018-10-19T00:52:09.518Z,99.99
2018-10-19T00:53:09.523Z,99.99
2018-10-19T00:54:09.485Z,99.99
2018-10-19T00:55:09.459Z,99.99
2018-10-19T00:56:09.430Z,99.99
2018-10-19T00:57:09.482Z,99.99
2018-10-19T00:58:09.389Z,99.99
2018-10-19T00:59:09.467Z,99.99
2018-10-19T01:00:09.347Z,99.99
2018-10-19T01:01:09.321Z,99.99
2018-10-19T01:02:09.298Z,99.99
2018-10-19T01:03:09.374Z,99.99
2018-10-19T01:04:09.259Z,99.99
2018-10-19T01:05:09.292Z,99.99
2018-10-19T01:06:09.214Z,99.99
2018-10-19T01:07:09.194Z,99.99
2018-10-19T01:08:09.168Z,99.99
2018-10-19T01:09:09.152Z,99.99
2018-10-19T01:10:09.125Z,99.99
2018-10-19T01:11:09.226Z,99.99
2018-10-19T01:12:09.071Z,99.99
2018-10-19T01:13:09.053Z,99.99
2018-10-19T01:14:09.030Z,99.99
2018-10-19T01:15:09.032Z,99.99
2018-10-19T01:16:08.995Z,99.99
2018-10-19T01:17:08.982Z,99.99
2018-10-19T01:18:08.947Z,99.99
2018-10-19T01:19:08.918Z,99.99
2018-10-19T01:20:08.899Z,99.99
2018-10-19T01:21:08.901Z,99.99
2018-10-19T01:22:08.850Z,99.99
2018-10-19T01:23:08.922Z,99.99
2018-10-19T01:24:08.814Z,99.99
2018-10-19T01:25:08.795Z,99.99
2018-10-19T01:26:08.769Z,99.99
2018-10-19T01:27:08.769Z,99.99
2018-10-19T01:28:08.726Z,99.99
2018-10-19T01:29:08.800Z,99.99
2018-10-19T01:30:08.683Z,99.99
2018-10-19T01:31:08.654Z,99.99
2018-10-19T01:32:08.659Z,99.99
2018-10-19T01:33:08.697Z,99.99
2018-10-19T01:34:08.589Z,99.99
2018-10-19T01:35:08.595Z,99.99
2018-10-19T01:36:08.548Z,99.99
2018-10-19T01:37:08.521Z,99.99
2018-10-19T01:38:08.500Z,99.99
2018-10-19T01:39:08.577Z,99.99
2018-10-19T01:40:08.456Z,99.99
2018-10-19T01:41:08.441Z,99.99
2018-10-19T01:42:08.414Z,99.99
2018-10-19T01:43:08.392Z,99.99
2018-10-19T01:44:08.366Z,99.99
2018-10-19T01:45:08.433Z,99.99
2018-10-19T01:46:08.328Z,99.99
2018-10-19T01:47:08.363Z,99.99
2018-10-19T01:48:08.291Z,99.99
2018-10-19T01:49:08.260Z,99.99
2018-10-19T01:50:08.231Z,99.99
2018-10-19T01:51:08.250Z,99.99
2018-10-19T01:52:08.189Z,99.99
2018-10-19T01:53:08.179Z,99.99
2018-10-19T01:54:08.148Z,99.99
2018-10-19T01:55:08.128Z,99.99
2018-10-19T01:56:08.108Z,99.99
2018-10-19T01:57:08.112Z,99.99
2018-10-19T01:58:08.063Z,99.99
2018-10-19T01:59:08.060Z,99.99
2018-10-19T02:00:08.022Z,99.99
2018-10-19T02:01:07.999Z,99.99
2018-10-19T02:02:07.970Z,99.99
2018-10-19T02:03:07.967Z,99.99
2018-10-19T02:04:07.932Z,99.99
2018-10-19T02:05:07.960Z,99.99
2018-10-19T02:06:07.880Z,99.99
2018-10-19T02:07:07.862Z,99.99
2018-10-19T02:08:07.839Z,99.99
2018-10-19T02:09:07.893Z,99.99
2018-10-19T02:10:07.797Z,99.99
2018-10-19T02:11:07.806Z,99.99
2018-10-19T02:12:07.750Z,99.99
2018-10-19T02:13:07.740Z,99.99
2018-10-19T02:14:09.307Z,99.99
2018-10-19T02:15:07.711Z,99.99
2018-10-19T02:16:07.669Z,99.99
2018-10-19T02:17:07.687Z,99.99
2018-10-19T02:18:07.625Z,99.99
2018-10-19T02:19:07.597Z,99.99
2018-10-19T02:20:07.580Z,99.99
2018-10-19T02:21:07.573Z,99.99
2018-10-19T02:22:07.533Z,99.99
2018-10-19T02:23:07.564Z,99.99
2018-10-19T02:24:07.493Z,99.99
2018-10-19T02:25:07.482Z,99.99
2018-10-19T02:26:07.443Z,99.99
2018-10-19T02:27:07.469Z,99.99
2018-10-19T02:28:07.404Z,99.99
2018-10-19T02:29:07.442Z,99.99
2018-10-19T02:30:07.364Z,99.99
2018-10-19T02:31:07.354Z,99.99
2018-10-19T02:32:07.321Z,99.99
2018-10-19T02:33:07.303Z,99.99
2018-10-19T02:34:07.281Z,99.99
2018-10-19T02:35:07.306Z,99.99
2018-10-19T02:36:07.236Z,99.99
2018-10-19T02:37:07.212Z,99.99
2018-10-19T02:38:07.199Z,99.99
2018-10-19T02:39:07.183Z,99.99
2018-10-19T02:40:07.150Z,99.99
2018-10-19T02:41:07.154Z,99.99
2018-10-19T02:42:07.103Z,99.99
2018-10-19T02:43:07.081Z,99.99
2018-10-19T02:44:07.066Z,99.99
2018-10-19T02:45:07.122Z,99.99
2018-10-19T02:46:07.017Z,99.99
2018-10-19T02:47:07.017Z,99.99
2018-10-19T02:48:06.976Z,99.99
2018-10-19T02:49:06.959Z,99.99
2018-10-19T02:50:06.941Z,99.99
2018-10-19T02:51:06.979Z,99.99
2018-10-19T02:52:06.903Z,99.99
2018-10-19T02:53:06.978Z,99.99
2018-10-19T02:54:06.852Z,99.99
2018-10-19T02:55:06.837Z,99.99
2018-10-19T02:56:06.827Z,99.99
2018-10-19T02:57:06.864Z,99.99
2018-10-19T02:58:06.776Z,99.99
2018-10-19T02:59:06.796Z,99.99
2018-10-19T03:00:06.734Z,99.99
2018-10-19T03:01:06.712Z,99.99
2018-10-19T03:02:06.682Z,99.99
2018-10-19T03:03:06.680Z,99.99
2018-10-19T03:04:06.648Z,99.99
2018-10-19T03:05:06.625Z,99.99
2018-10-19T03:06:06.602Z,99.99
2018-10-19T03:07:06.581Z,99.99
2018-10-19T03:08:06.564Z,99.99
2018-10-19T03:09:06.637Z,99.99
2018-10-19T03:10:06.516Z,99.99
2018-10-19T03:11:06.544Z,99.99
2018-10-19T03:12:06.482Z,99.99
2018-10-19T03:13:06.457Z,99.99
2018-10-19T03:14:06.438Z,99.99
2018-10-19T03:15:06.523Z,99.99
2018-10-19T03:16:06.397Z,99.99
2018-10-19T03:17:06.436Z,99.99
2018-10-19T03:18:06.352Z,99.99
2018-10-19T03:19:06.335Z,99.99
2018-10-19T03:20:06.313Z,99.99
2018-10-19T03:21:06.351Z,99.99
2018-10-19T03:22:06.272Z,99.99
2018-10-19T03:23:06.255Z,99.99
2018-10-19T03:24:06.228Z,99.99
2018-10-19T03:25:06.241Z,99.99
2018-10-19T03:26:06.193Z,99.99
2018-10-19T03:27:06.235Z,99.99
2018-10-19T03:28:06.152Z,99.99
2018-10-19T03:29:06.133Z,99.99
2018-10-19T03:30:06.102Z,99.99
2018-10-19T03:31:06.161Z,99.99
2018-10-19T03:32:06.057Z,99.99
2018-10-19T03:33:06.126Z,99.99
2018-10-19T03:34:06.026Z,99.99
2018-10-19T03:35:06.047Z,99.99
2018-10-19T03:36:05.970Z,99.99
2018-10-19T03:37:05.947Z,99.99
2018-10-19T03:38:05.939Z,99.99
2018-10-19T03:39:05.969Z,99.99
2018-10-19T03:40:05.905Z,99.99
2018-10-19T03:41:05.951Z,99.99
2018-10-19T03:42:05.841Z,99.99
2018-10-19T03:43:05.821Z,99.99
2018-10-19T03:44:05.807Z,99.99
2018-10-19T03:45:05.880Z,99.99
2018-10-19T03:46:05.761Z,99.99
2018-10-19T03:47:05.831Z,99.99
2018-10-19T03:48:05.715Z,99.99
2018-10-19T03:49:05.737Z,99.99
2018-10-19T03:50:05.670Z,99.99
2018-10-19T03:51:05.731Z,99.99
2018-10-19T03:52:05.635Z,99.99
2018-10-19T03:53:05.669Z,99.99
2018-10-19T03:54:05.590Z,99.99
2018-10-19T03:55:05.570Z,99.99
2018-10-19T03:56:05.555Z,99.99
2018-10-19T03:57:05.543Z,99.99
2018-10-19T03:58:05.507Z,99.99
2018-10-19T03:59:05.505Z,99.99
2018-10-19T04:00:05.459Z,99.99
2018-10-19T04:01:05.447Z,99.99
2018-10-19T04:02:05.423Z,99.99
2018-10-19T04:03:05.450Z,99.99
2018-10-19T04:04:05.382Z,99.99
2018-10-19T04:05:05.375Z,99.99
2018-10-19T04:06:05.354Z,99.99
2018-10-19T04:07:05.331Z,99.99
2018-10-19T04:08:05.297Z,99.99
2018-10-19T04:09:05.328Z,99.99
2018-10-19T04:10:05.258Z,99.99
2018-10-19T04:11:05.260Z,99.99
2018-10-19T04:12:05.229Z,99.99
2018-10-19T04:13:05.201Z,99.99
2018-10-19T04:14:05.175Z,99.99
2018-10-19T04:15:05.187Z,99.99
2018-10-19T04:16:05.127Z,99.99
2018-10-19T04:17:05.141Z,99.99
2018-10-19T04:18:05.096Z,99.99
2018-10-19T04:19:05.080Z,99.99
2018-10-19T04:20:05.043Z,99.99
2018-10-19T04:21:05.095Z,99.99
2018-10-19T04:22:04.997Z,99.99
2018-10-19T04:23:05.033Z,99.99
2018-10-19T04:24:04.975Z,99.99
2018-10-19T04:25:04.936Z,99.99
2018-10-19T04:26:04.911Z,99.99
2018-10-19T04:27:04.985Z,99.99
2018-10-19T04:28:04.870Z,99.99
2018-10-19T04:29:04.875Z,99.99
2018-10-19T04:30:04.832Z,99.99
2018-10-19T04:31:04.810Z,99.99
2018-10-19T04:32:04.795Z,99.99
2018-10-19T04:33:04.817Z,99.99
2018-10-19T04:34:04.748Z,99.99
2018-10-19T04:35:04.785Z,99.99
2018-10-19T04:36:04.702Z,99.99
2018-10-19T04:37:04.705Z,99.99
2018-10-19T04:38:04.660Z,99.99
2018-10-19T04:39:04.719Z,99.99
2018-10-19T04:40:04.615Z,99.99
2018-10-19T04:41:04.615Z,99.99
2018-10-19T04:42:04.752Z,99.99
2018-10-19T04:43:04.558Z,99.99
2018-10-19T04:44:04.532Z,99.99
2018-10-19T04:45:04.520Z,99.99
2018-10-19T04:46:04.492Z,99.99
2018-10-19T04:47:04.532Z,99.99
2018-10-19T04:48:04.441Z,99.99
2018-10-19T04:49:04.418Z,99.99
2018-10-19T04:50:04.415Z,99.99
2018-10-19T04:51:04.388Z,99.99
2018-10-19T04:52:04.357Z,99.99
2018-10-19T04:53:04.395Z,99.99
2018-10-19T04:54:04.315Z,99.99
2018-10-19T04:55:04.295Z,99.99
2018-10-19T04:56:04.273Z,99.99
2018-10-19T04:57:04.264Z,99.99
2018-10-19T04:58:04.225Z,99.99
2018-10-19T04:59:04.293Z,99.99
2018-10-19T05:00:04.187Z,99.99
2018-10-19T05:01:04.158Z,99.99
2018-10-19T05:02:04.155Z,99.99
2018-10-19T05:03:04.179Z,99.99
2018-10-19T05:04:04.108Z,99.99
2018-10-19T05:05:04.090Z,99.99
2018-10-19T05:06:04.173Z,99.99
2018-10-19T05:07:04.038Z,99.99
2018-10-19T05:08:04.070Z,99.99
2018-10-19T05:09:03.987Z,99.99
2018-10-19T05:10:03.967Z,99.99
2018-10-19T05:11:03.986Z,99.99
2018-10-19T05:12:03.923Z,99.99
2018-10-19T05:13:03.968Z,99.99
2018-10-19T05:14:03.892Z,99.99
2018-10-19T05:15:03.856Z,99.99
2018-10-19T05:16:03.846Z,99.99
2018-10-19T05:17:03.852Z,99.99
2018-10-19T05:18:03.798Z,99.99
2018-10-19T05:19:03.770Z,99.99
2018-10-19T05:20:03.798Z,99.99
2018-10-19T05:21:03.728Z,99.99
2018-10-19T05:22:03.709Z,99.99
2018-10-19T05:23:03.725Z,99.99
2018-10-19T05:24:03.667Z,99.99
2018-10-19T05:25:03.641Z,99.99
2018-10-19T05:26:03.683Z,99.99
2018-10-19T05:27:03.596Z,99.99
2018-10-19T05:28:03.577Z,99.99
2018-10-19T05:29:03.614Z,99.99
2018-10-19T05:30:03.539Z,99.99
2018-10-19T05:31:03.517Z,99.99
2018-10-19T05:32:03.511Z,99.99
2018-10-19T05:33:03.566Z,99.99
2018-10-19T05:34:03.455Z,99.99
2018-10-19T05:35:03.473Z,99.99
2018-10-19T05:36:03.416Z,99.99
2018-10-19T05:37:03.391Z,99.99
2018-10-19T05:38:03.452Z,99.99
2018-10-19T05:39:03.346Z,99.99
2018-10-19T05:40:03.327Z,99.99
2018-10-19T05:41:03.371Z,99.99
2018-10-19T05:42:03.280Z,99.99
2018-10-19T05:43:03.256Z,99.99
2018-10-19T05:44:03.258Z,99.99
2018-10-19T05:45:03.216Z,99.99
2018-10-19T05:46:03.197Z,99.99
2018-10-19T05:47:03.227Z,99.99
2018-10-19T05:48:03.156Z,99.99
2018-10-19T05:49:03.131Z,99.99
2018-10-19T05:50:03.166Z,99.99
2018-10-19T05:51:03.089Z,99.99
2018-10-19T05:52:03.115Z,99.99
2018-10-19T05:53:03.109Z,99.99
2018-10-19T05:54:03.021Z,99.99
2018-10-19T05:55:03.022Z,99.99
2018-10-19T05:56:03.013Z,99.99
2018-10-19T05:57:02.958Z,99.99
2018-10-19T05:58:02.942Z,99.99
2018-10-19T05:59:02.947Z,99.99
2018-10-19T06:00:02.900Z,99.99
2018-10-19T06:01:02.878Z,99.99
2018-10-19T06:02:02.959Z,99.99
2018-10-19T06:03:02.833Z,99.99
2018-10-19T06:04:02.810Z,99.99
2018-10-19T06:05:02.854Z,99.99
2018-10-19T06:06:02.769Z,99.99
2018-10-19T06:07:02.747Z,99.99
2018-10-19T06:08:02.749Z,99.99
2018-10-19T06:09:02.706Z,99.99
2018-10-19T06:10:02.690Z,99.99
2018-10-19T06:11:02.719Z,99.99
2018-10-19T06:12:02.645Z,99.99
2018-10-19T06:13:02.616Z,99.99
2018-10-19T06:14:02.651Z,99.99
2018-10-19T06:15:02.581Z,99.99
2018-10-19T06:16:02.555Z,99.99
2018-10-19T06:17:02.543Z,99.99
2018-10-19T06:18:02.515Z,99.99
2018-10-19T06:19:02.493Z,99.99
2018-10-19T06:20:02.519Z,99.99
2018-10-19T06:21:02.517Z,99.99
2018-10-19T06:22:02.432Z,99.99
2018-10-19T06:23:02.418Z,99.99
2018-10-19T06:24:02.378Z,99.99
2018-10-19T06:25:02.365Z,99.99
2018-10-19T06:26:02.435Z,99.99
2018-10-19T06:27:02.328Z,99.99
2018-10-19T06:28:02.299Z,99.99
2018-10-19T06:29:02.344Z,99.99
2018-10-19T06:30:02.255Z,99.99
2018-10-19T06:31:02.226Z,99.99
2018-10-19T06:32:02.285Z,99.99
2018-10-19T06:33:02.183Z,99.99
2018-10-19T06:34:02.177Z,99.99
2018-10-19T06:35:02.221Z,99.99
2018-10-19T06:36:02.123Z,99.99
2018-10-19T06:37:02.095Z,99.99
2018-10-19T06:38:02.138Z,99.99
2018-10-19T06:39:02.056Z,99.99
2018-10-19T06:40:02.032Z,99.99
2018-10-19T06:41:02.061Z,99.99
2018-10-19T06:42:01.986Z,99.99
2018-10-19T06:43:01.967Z,99.99
2018-10-19T06:44:02.080Z,99.99
2018-10-19T06:45:01.932Z,99.99
2018-10-19T06:46:01.899Z,99.99
2018-10-19T06:47:01.898Z,99.99
2018-10-19T06:48:01.869Z,99.99
2018-10-19T06:49:01.931Z,99.99
2018-10-19T06:50:01.842Z,99.99
2018-10-19T06:51:01.800Z,99.99
2018-10-19T06:52:01.778Z,99.99
2018-10-19T06:53:01.781Z,99.99
2018-10-19T06:54:01.752Z,99.99
2018-10-19T06:55:01.707Z,99.99
2018-10-19T06:56:01.761Z,99.99
2018-10-19T06:57:01.662Z,99.99
2018-10-19T06:58:01.655Z,99.99
2018-10-19T06:59:01.755Z,99.99
2018-10-19T07:00:01.604Z,99.99
2018-10-19T07:01:01.585Z,99.99
2018-10-19T07:02:01.627Z,99.99
2018-10-19T07:03:01.540Z,99.99
2018-10-19T07:04:01.527Z,99.99
2018-10-19T07:05:01.560Z,99.99
2018-10-19T07:06:01.500Z,99.99
2018-10-19T07:07:01.453Z,99.99
2018-10-19T07:08:01.521Z,99.99
2018-10-19T07:09:01.410Z,99.99
2018-10-19T07:10:01.388Z,99.99
2018-10-19T07:11:01.382Z,99.99
2018-10-19T07:12:01.383Z,99.99
2018-10-19T07:13:01.322Z,99.99
2018-10-19T07:14:01.359Z,99.99
2018-10-19T07:15:01.291Z,99.99
2018-10-19T07:16:01.292Z,99.99
2018-10-19T07:17:01.250Z,99.99
2018-10-19T07:18:01.219Z,99.99
2018-10-19T07:19:01.267Z,99.99
2018-10-19T07:20:01.240Z,99.99
2018-10-19T07:21:01.152Z,99.99
2018-10-19T07:22:01.132Z,99.99
2018-10-19T07:23:01.202Z,99.99
2018-10-19T07:24:01.100Z,99.99
2018-10-19T07:25:01.068Z,99.99
2018-10-19T07:26:01.103Z,99.99
2018-10-19T07:27:01.027Z,99.99
2018-10-19T07:28:01.014Z,99.99
2018-10-19T07:29:01.041Z,99.99
2018-10-19T07:30:00.965Z,99.99
2018-10-19T07:31:00.950Z,99.99
2018-10-19T07:32:00.990Z,99.99
2018-10-19T07:33:00.913Z,99.99
2018-10-19T07:34:00.881Z,99.99
2018-10-19T07:35:00.881Z,99.99
2018-10-19T07:36:00.855Z,99.99
2018-10-19T07:37:00.820Z,99.99
2018-10-19T07:38:00.860Z,99.99
2018-10-19T07:39:00.782Z,99.99
2018-10-19T07:40:00.766Z,99.99
2018-10-19T07:41:00.774Z,99.99
2018-10-19T07:42:00.798Z,99.99
2018-10-19T07:43:00.699Z,99.99
2018-10-19T07:44:00.719Z,99.99
2018-10-19T07:45:00.660Z,99.99
2018-10-19T07:46:00.642Z,99.99
2018-10-19T07:47:00.674Z,99.99
2018-10-19T07:48:00.825Z,99.99
2018-10-19T07:49:00.587Z,99.99
2018-10-19T07:50:00.585Z,99.99
2018-10-19T07:51:00.549Z,99.99
2018-10-19T07:52:00.523Z,99.99
2018-10-19T07:53:00.528Z,99.99
2018-10-19T07:54:00.538Z,99.99
2018-10-19T07:55:00.466Z,99.99
2018-10-19T07:56:00.483Z,99.99
2018-10-19T07:57:00.438Z,99.99
2018-10-19T07:58:00.414Z,99.99
2018-10-19T07:59:00.438Z,99.99
2018-10-19T08:00:00.376Z,99.99
2018-10-19T08:01:00.363Z,99.99
2018-10-19T08:02:00.374Z,99.99
2018-10-19T08:03:00.313Z,99.99
2018-10-19T08:04:00.297Z,99.99
2018-10-19T08:05:00.320Z,99.99
2018-10-19T08:06:00.259Z,99.99
2018-10-19T08:07:00.243Z,99.99
2018-10-19T08:08:00.279Z,99.99
2018-10-19T08:09:00.211Z,99.99
2018-10-19T08:10:00.195Z,99.99
2018-10-19T08:11:00.176Z,99.99
2018-10-19T08:12:00.156Z,99.99
2018-10-19T08:13:00.143Z,99.99
2018-10-19T08:14:00.146Z,99.99
2018-10-19T08:15:00.109Z,99.99
2018-10-19T08:16:00.087Z,99.99
2018-10-19T08:17:00.101Z,99.99
2018-10-19T08:18:00.052Z,99.99
2018-10-19T08:19:00.036Z,99.24
2018-10-19T08:20:00.033Z,99.99
2018-10-19T08:21:00.003Z,99.99
2018-10-19T08:21:59.982Z,99.63
2018-10-19T08:23:00.002Z,99.99
2018-10-19T08:23:59.945Z,99.67
2018-10-19T08:24:59.930Z,99.99
2018-10-19T08:25:59.938Z,99.99
2018-10-19T08:26:59.893Z,99.99
2018-10-19T08:27:59.882Z,99.05
2018-10-19T08:28:59.889Z,99.05
2018-10-19T08:29:59.865Z,99.91
2018-10-19T08:30:59.826Z,97.47
2018-10-19T08:31:59.827Z,97.52
2018-10-19T08:32:59.798Z,97.23
2018-10-19T08:33:59.778Z,95.75
2018-10-19T08:34:59.815Z,94.84
2018-10-19T08:35:59.752Z,96.22
2018-10-19T08:36:59.734Z,95.51
2018-10-19T08:37:59.794Z,94.17
2018-10-19T08:38:59.705Z,94.98
2018-10-19T08:39:59.689Z,94.88
2018-10-19T08:40:59.695Z,94.64
2018-10-19T08:41:59.660Z,93.59
2018-10-19T08:42:59.681Z,90.52
2018-10-19T08:43:59.622Z,89.89
2018-10-19T08:44:59.616Z,90.03
2018-10-19T08:45:59.590Z,90.03
2018-10-19T08:46:59.645Z,90.85
2018-10-19T08:47:59.562Z,93.30
2018-10-19T08:48:59.582Z,93.30
2018-10-19T08:49:59.529Z,91.57
2018-10-19T08:50:59.544Z,90.46
2018-10-19T08:51:59.497Z,91.71
2018-10-19T08:52:59.555Z,89.54
2018-10-19T08:53:59.478Z,90.12
2018-10-19T08:54:59.471Z,88.35
2018-10-19T08:55:59.445Z,90.27
2018-10-19T08:56:59.481Z,90.03
2018-10-19T08:57:59.594Z,91.28
2018-10-19T08:58:59.399Z,90.03
2018-10-19T08:59:59.395Z,91.19
2018-10-19T09:00:59.379Z,90.80
2018-10-19T09:01:59.359Z,90.56
2018-10-19T09:02:59.342Z,90.66
2018-10-19T09:03:59.369Z,89.36
2018-10-19T09:04:59.344Z,89.40
2018-10-19T09:05:59.316Z,88.15
2018-10-19T09:06:59.284Z,86.61
2018-10-19T09:07:59.268Z,86.80
2018-10-19T09:08:59.257Z,85.94
2018-10-19T09:09:59.233Z,87.05
2018-10-19T09:10:59.342Z,86.95
2018-10-19T09:11:59.211Z,88.49
2018-10-19T09:12:59.201Z,88.49
2018-10-19T09:13:59.175Z,87.24
2018-10-19T09:14:59.177Z,87.72
2018-10-19T09:15:59.156Z,87.82
2018-10-19T09:16:59.203Z,87.87
2018-10-19T09:17:59.127Z,88.45
2018-10-19T09:18:59.114Z,89.12
2018-10-19T09:19:59.098Z,89.94
2018-10-19T09:20:59.096Z,91.09
2018-10-19T09:21:59.073Z,91.96
2018-10-19T09:22:59.056Z,93.01
2018-10-19T09:23:59.041Z,91.19
2018-10-19T09:24:59.028Z,92.10
2018-10-19T09:25:59.012Z,89.45
2018-10-19T09:26:59.054Z,88.78
2018-10-19T09:27:58.997Z,89.07
2018-10-19T09:28:58.983Z,89.26
2018-10-19T09:29:58.958Z,89.59
2018-10-19T09:30:58.948Z,88.01
2018-10-19T09:31:58.938Z,89.12
2018-10-19T09:32:58.919Z,89.54
2018-10-19T09:33:58.903Z,89.01
2018-10-19T09:34:58.936Z,87.38
2018-10-19T09:35:58.955Z,86.46
2018-10-19T09:36:58.936Z,86.02
2018-10-19T09:37:58.849Z,86.51
2018-10-19T09:38:58.847Z,85.93
2018-10-19T09:39:58.862Z,84.83
2018-10-19T09:40:58.832Z,85.31
2018-10-19T09:41:58.814Z,85.60
2018-10-19T09:42:58.794Z,85.88
2018-10-19T09:43:58.778Z,85.74
2018-10-19T09:44:58.779Z,84.77
2018-10-19T09:45:58.743Z,83.81
2018-10-19T09:46:58.773Z,83.62
2018-10-19T09:47:58.724Z,83.81
2018-10-19T09:48:58.732Z,84.72
2018-10-19T09:49:58.711Z,83.03
2018-10-19T09:50:58.723Z,83.41
2018-10-19T09:51:58.682Z,84.18
2018-10-19T09:52:58.711Z,82.16
2018-10-19T09:53:58.653Z,82.83
2018-10-19T09:54:58.707Z,81.63
2018-10-19T09:55:58.655Z,82.46
2018-10-19T09:56:58.658Z,83.14
2018-10-19T09:57:58.602Z,83.14
2018-10-19T09:58:58.623Z,83.72
2018-10-19T09:59:58.573Z,83.91
2018-10-19T10:00:58.604Z,82.89
2018-10-19T10:01:58.571Z,82.17
2018-10-19T10:02:58.565Z,82.94
2018-10-19T10:03:58.535Z,83.91
2018-10-19T10:04:58.534Z,84.29
2018-10-19T10:05:58.507Z,82.79
2018-10-19T10:06:58.506Z,81.60
2018-10-19T10:07:58.540Z,84.10
2018-10-19T10:08:58.501Z,83.14
2018-10-19T10:09:58.475Z,82.46
2018-10-19T10:10:58.457Z,83.00
2018-10-19T10:11:58.447Z,83.81
2018-10-19T10:12:58.428Z,84.14
2018-10-19T10:13:58.409Z,82.31
2018-10-19T10:14:58.423Z,82.98
2018-10-19T10:15:58.386Z,82.70
2018-10-19T10:16:58.433Z,81.93
2018-10-19T10:17:58.360Z,81.83
2018-10-19T10:18:58.355Z,82.02
2018-10-19T10:19:58.338Z,82.50
2018-10-19T10:20:58.333Z,82.85
2018-10-19T10:21:58.364Z,83.72
2018-10-19T10:22:58.303Z,82.85
2018-10-19T10:23:58.294Z,82.85
2018-10-19T10:24:58.425Z,83.62
2018-10-19T10:25:58.277Z,82.65
2018-10-19T10:26:58.265Z,81.88
2018-10-19T10:27:58.254Z,82.94
2018-10-19T10:28:58.236Z,82.56
2018-10-19T10:29:58.233Z,82.46
2018-10-19T10:30:58.218Z,83.62
2018-10-19T10:31:58.215Z,82.56
2018-10-19T10:32:58.197Z,82.65
2018-10-19T10:33:58.242Z,83.72
2018-10-19T10:34:58.175Z,82.94
2018-10-19T10:35:58.194Z,84.97
2018-10-19T10:36:58.188Z,84.19
2018-10-19T10:37:58.136Z,83.91
2018-10-19T10:38:58.179Z,83.04
2018-10-19T10:39:58.142Z,83.04
2018-10-19T10:40:58.102Z,83.75
2018-10-19T10:41:58.098Z,82.89
2018-10-19T10:42:58.096Z,82.16
2018-10-19T10:43:58.080Z,81.54
2018-10-19T10:44:58.066Z,82.93
2018-10-19T10:45:58.069Z,82.06
2018-10-19T10:46:58.093Z,82.78
2018-10-19T10:47:58.028Z,81.27
2018-10-19T10:48:58.110Z,80.99
2018-10-19T10:49:58.016Z,79.64
2018-10-19T10:50:57.999Z,79.74
2018-10-19T10:51:58.000Z,80.16
2018-10-19T10:52:57.980Z,77.21
2018-10-19T10:53:57.971Z,77.94
2018-10-19T10:54:57.963Z,78.48
2018-10-19T10:55:57.954Z,77.28
2018-10-19T10:56:57.945Z,77.76
2018-10-19T10:57:57.989Z,78.63
2018-10-19T10:58:57.929Z,79.85
2018-10-19T10:59:57.923Z,79.08
2018-10-19T11:00:57.959Z,79.08
2018-10-19T11:01:57.912Z,78.98
2018-10-19T11:02:57.888Z,80.14
2018-10-19T11:03:57.939Z,80.04
2018-10-19T11:04:57.886Z,80.91
2018-10-19T11:05:57.862Z,80.33
2018-10-19T11:06:57.884Z,82.10
2018-10-19T11:07:57.847Z,81.95
2018-10-19T11:08:57.832Z,81.57
2018-10-19T11:09:57.867Z,79.93
2018-10-19T11:10:57.824Z,78.19
2018-10-19T11:11:57.808Z,78.91
2018-10-19T11:12:57.831Z,77.84
2018-10-19T11:13:57.795Z,76.17
2018-10-19T11:14:57.792Z,77.03
2018-10-19T11:15:57.790Z,78.67
2018-10-19T11:16:57.779Z,77.90
2018-10-19T11:17:57.757Z,79.11
2018-10-19T11:18:57.778Z,80.51
2018-10-19T11:19:57.744Z,79.64
2018-10-19T11:20:57.741Z,77.42
2018-10-19T11:21:57.740Z,78.58
2018-10-19T11:22:57.721Z,77.33
2018-10-19T11:23:57.729Z,77.67
2018-10-19T11:24:57.753Z,79.54
2018-10-19T11:25:57.700Z,79.44
2018-10-19T11:26:57.691Z,80.02
2018-10-19T11:27:57.703Z,76.84
2018-10-19T11:28:57.675Z,76.55
2018-10-19T11:29:57.669Z,76.17
2018-10-19T11:30:57.706Z,77.94
2018-10-19T11:31:57.649Z,78.09
2018-10-19T11:32:57.642Z,78.86
2018-10-19T11:33:57.691Z,79.29
2018-10-19T11:34:57.627Z,78.23
2018-10-19T11:35:57.630Z,78.13
2018-10-19T11:36:57.652Z,77.36
2018-10-19T11:37:57.647Z,76.59
2018-10-19T11:38:57.597Z,77.07
2018-10-19T11:39:57.625Z,77.61
2018-10-19T11:40:57.586Z,78.71
2018-10-19T11:41:57.578Z,78.61
2018-10-19T11:42:57.610Z,77.01
2018-10-19T11:43:57.564Z,77.07
2018-10-19T11:44:57.556Z,78.13
2018-10-19T11:45:57.596Z,77.69
2018-10-19T11:46:57.547Z,77.11
2018-10-19T11:47:57.540Z,76.59
2018-10-19T11:48:57.589Z,77.55
2018-10-19T11:49:57.518Z,77.46
2018-10-19T11:50:57.514Z,75.62
2018-10-19T11:51:57.531Z,75.68
2018-10-19T11:52:57.507Z,76.23
2018-10-19T11:53:57.496Z,80.66
2018-10-19T11:54:57.571Z,79.83
2018-10-19T11:55:57.491Z,80.60
2018-10-19T11:56:57.488Z,77.96
2018-10-19T11:57:57.489Z,79.11
2018-10-19T11:58:57.459Z,79.69
2018-10-19T11:59:57.459Z,78.86
2018-10-19T12:00:57.464Z,77.61
2018-10-19T12:01:57.453Z,76.80
2018-10-19T12:02:57.439Z,77.09
2018-10-19T12:03:57.444Z,79.16
2018-10-19T12:04:57.414Z,78.38
2018-10-19T12:05:57.409Z,77.81
2018-10-19T12:06:57.464Z,77.81
2018-10-19T12:07:57.398Z,77.42
2018-10-19T12:08:57.395Z,78.81
2018-10-19T12:09:57.395Z,77.23
2018-10-19T12:10:57.381Z,76.75
2018-10-19T12:11:57.370Z,76.45
2018-10-19T12:12:57.436Z,77.03
2018-10-19T12:13:57.369Z,77.51
2018-10-19T12:14:57.403Z,77.71
2018-10-19T12:15:57.358Z,76.90
2018-10-19T12:16:57.472Z,77.96
2018-10-19T12:17:57.325Z,79.02
2018-10-19T12:18:57.345Z,80.94
2018-10-19T12:19:57.316Z,79.94
2018-10-19T12:20:57.341Z,79.46
2018-10-19T12:21:57.306Z,80.04
2018-10-19T12:22:57.294Z,79.43
2018-10-19T12:23:57.287Z,80.92
2018-10-19T12:24:57.325Z,81.84
2018-10-19T12:25:57.331Z,82.90
2018-10-19T12:26:57.263Z,83.39
2018-10-19T12:27:57.255Z,84.48
2018-10-19T12:28:57.242Z,83.14
2018-10-19T12:29:57.233Z,83.08
2018-10-19T12:30:57.242Z,80.77
2018-10-19T12:31:57.217Z,81.01
2018-10-19T12:32:57.213Z,80.71
2018-10-19T12:33:57.201Z,80.62
2018-10-19T12:34:57.201Z,82.10
2018-10-19T12:35:57.182Z,80.46
2018-10-19T12:36:57.185Z,79.11
2018-10-19T12:37:57.169Z,80.08
2018-10-19T12:38:57.204Z,80.79
2018-10-19T12:39:57.163Z,78.29
2018-10-19T12:40:57.198Z,80.22
2018-10-19T12:41:57.127Z,78.13
2018-10-19T12:42:57.153Z,77.65
2018-10-19T12:43:57.114Z,77.26
2018-10-19T12:44:57.158Z,76.55
2018-10-19T12:45:57.099Z,77.00
2018-10-19T12:46:57.092Z,79.02
2018-10-19T12:47:57.085Z,79.75
2018-10-19T12:48:57.084Z,79.56
2018-10-19T12:49:57.063Z,79.17
2018-10-19T12:50:57.066Z,79.98
2018-10-19T12:51:57.049Z,80.23